createdAt,value
2022-12-12T00:01:33.567Z,100686.75
2022-12-12T00:04:03.258Z,100689.91
2022-12-12T00:06:32.674Z,100682.94
2022-12-12T00:09:03.585Z,100681.25
2022-12-12T00:11:32.485Z,100686.13
2022-12-12T00:14:01.132Z,100687.00
2022-12-12T00:16:29.825Z,100684.03
2022-12-12T00:18:58.423Z,100691.59
2022-12-12T00:21:29.205Z,100688.44
2022-12-12T00:23:59.251Z,100695.81
2022-12-12T00:26:31.500Z,100696.69
2022-12-12T00:29:01.205Z,100695.66
2022-12-12T00:31:30.600Z,100697.56
2022-12-12T00:33:59.411Z,100696.28
2022-12-12T00:36:30.604Z,100693.31
2022-12-12T00:39:00.445Z,100684.06
2022-12-12T00:41:30.560Z,100688.00
2022-12-12T00:43:59.168Z,100695.41
2022-12-12T00:46:27.996Z,100702.50
2022-12-12T00:48:59.321Z,100696.06
2022-12-12T00:51:29.925Z,100691.88
2022-12-12T00:53:59.434Z,100688.72
2022-12-12T00:56:30.949Z,100698.22
2022-12-12T00:58:59.579Z,100701.16
2022-12-12T01:01:31.279Z,100703.28
2022-12-12T01:04:00.312Z,100703.88
2022-12-12T01:06:29.546Z,100701.31
2022-12-12T01:08:58.686Z,100706.13
2022-12-12T01:11:27.903Z,100708.91
2022-12-12T01:13:58.201Z,100707.25
2022-12-12T01:16:27.016Z,100700.25
2022-12-12T01:18:55.738Z,100713.31
2022-12-12T01:21:25.212Z,100718.16
2022-12-12T01:23:53.851Z,100722.44
2022-12-12T01:26:24.574Z,100721.63
2022-12-12T01:28:53.290Z,100726.59
2022-12-12T01:31:23.438Z,100730.03
2022-12-12T01:33:52.331Z,100731.69
2022-12-12T01:36:23.368Z,100735.47
2022-12-12T01:38:55.140Z,100740.41
2022-12-12T01:41:23.889Z,100736.78
2022-12-12T01:43:52.812Z,100739.53
2022-12-12T01:46:44.525Z,100735.34
2022-12-12T01:49:22.405Z,100744.47
2022-12-12T01:51:53.806Z,100738.66
2022-12-12T01:54:25.942Z,100735.34
2022-12-12T01:56:56.188Z,100730.56
2022-12-12T01:59:27.254Z,100733.75
2022-12-12T02:01:57.967Z,100736.59
2022-12-12T02:04:28.791Z,100730.47
2022-12-12T02:06:58.345Z,100732.66
2022-12-12T02:09:28.083Z,100730.19
2022-12-12T02:11:58.998Z,100730.97
2022-12-12T02:14:31.561Z,100736.47
2022-12-12T02:17:32.900Z,100728.81
2022-12-12T02:20:37.291Z,100742.44
2022-12-12T02:23:59.422Z,100727.63
2022-12-12T02:27:07.587Z,100730.38
2022-12-12T02:30:12.200Z,100727.16
2022-12-12T02:33:21.768Z,100737.44
2022-12-12T02:36:08.265Z,100735.34
2022-12-12T02:38:52.004Z,100736.66
2022-12-12T02:41:30.479Z,100734.06
2022-12-12T02:44:09.837Z,100742.78
2022-12-12T02:46:42.944Z,100741.28
2022-12-12T02:49:18.770Z,100733.69
2022-12-12T02:51:49.349Z,100742.59
2022-12-12T02:54:21.679Z,100738.78
2022-12-12T02:56:53.966Z,100739.59
2022-12-12T02:59:29.612Z,100740.38
2022-12-12T03:02:28.547Z,100737.69
2022-12-12T03:05:31.379Z,100741.91
2022-12-12T03:08:12.775Z,100743.34
2022-12-12T03:10:53.583Z,100744.00
2022-12-12T03:13:33.299Z,100737.09
2022-12-12T03:16:20.122Z,100738.50
2022-12-12T03:18:59.359Z,100733.25
2022-12-12T03:21:38.173Z,100738.50
2022-12-12T03:24:12.042Z,100737.44
2022-12-12T03:26:46.676Z,100739.53
2022-12-12T03:29:20.760Z,100730.97
2022-12-12T03:31:53.722Z,100741.72
2022-12-12T03:34:26.275Z,100739.38
2022-12-12T03:37:02.306Z,100742.09
2022-12-12T03:39:36.812Z,100742.38
2022-12-12T03:42:11.399Z,100739.63
2022-12-12T03:44:45.145Z,100731.44
2022-12-12T03:47:16.967Z,100738.53
2022-12-12T03:49:49.524Z,100738.50
2022-12-12T03:52:24.251Z,100740.16
2022-12-12T03:55:00.093Z,100747.78
2022-12-12T03:57:33.198Z,100749.69
2022-12-12T04:00:05.995Z,100747.13
2022-12-12T04:02:40.166Z,100747.75
2022-12-12T04:05:16.263Z,100746.28
2022-12-12T04:07:50.895Z,100755.16
2022-12-12T04:10:38.417Z,100748.38
2022-12-12T04:13:14.203Z,100749.41
2022-12-12T04:15:55.271Z,100759.59
2022-12-12T04:18:34.411Z,100749.72
2022-12-12T04:21:32.625Z,100758.53
2022-12-12T04:24:08.454Z,100753.41
2022-12-12T04:26:42.896Z,100754.09
2022-12-12T04:29:35.366Z,100761.91
2022-12-12T04:32:14.434Z,100760.97
2022-12-12T04:34:50.642Z,100762.25
2022-12-12T04:37:23.528Z,100770.88
2022-12-12T04:39:58.762Z,100759.75
2022-12-12T04:42:32.427Z,100773.41
2022-12-12T04:45:08.149Z,100767.72
2022-12-12T04:47:39.465Z,100774.94
2022-12-12T04:50:10.520Z,100776.81
2022-12-12T04:52:42.528Z,100775.31
2022-12-12T04:55:18.910Z,100777.44
2022-12-12T04:57:50.827Z,100773.00
2022-12-12T05:00:20.779Z,100772.75
2022-12-12T05:02:58.829Z,100774.75
2022-12-12T05:05:33.774Z,100774.63
2022-12-12T05:08:07.926Z,100778.22
2022-12-12T05:10:44.223Z,100782.09
2022-12-12T05:13:18.376Z,100777.91
2022-12-12T05:15:48.463Z,100776.88
2022-12-12T05:18:18.111Z,100784.16
2022-12-12T05:20:46.723Z,100777.69
2022-12-12T05:23:15.760Z,100782.66
2022-12-12T05:25:46.111Z,100785.09
2022-12-12T05:28:14.715Z,100790.56
2022-12-12T05:30:43.404Z,100790.31
2022-12-12T05:33:12.075Z,100787.16
2022-12-12T05:35:40.716Z,100785.22
2022-12-12T05:38:09.370Z,100789.06
2022-12-12T05:40:37.996Z,100791.22
2022-12-12T05:43:07.973Z,100790.47
2022-12-12T05:45:36.593Z,100797.44
2022-12-12T05:48:05.328Z,100792.84
2022-12-12T05:50:33.993Z,100805.31
2022-12-12T05:53:02.600Z,100804.13
2022-12-12T05:55:31.206Z,100806.06
2022-12-12T05:57:59.819Z,100812.16
2022-12-12T06:00:29.822Z,100805.97
2022-12-12T06:02:58.498Z,100812.34
2022-12-12T06:05:27.127Z,100810.56
2022-12-12T06:07:56.445Z,100811.66
2022-12-12T06:10:25.295Z,100809.59
2022-12-12T06:12:53.898Z,100813.00
2022-12-12T06:15:22.523Z,100811.41
2022-12-12T06:17:52.555Z,100818.34
2022-12-12T06:20:21.234Z,100814.53
2022-12-12T06:22:53.763Z,100817.94
2022-12-12T06:25:22.882Z,100812.91
2022-12-12T06:27:51.595Z,100820.72
2022-12-12T06:30:20.462Z,100832.66
2022-12-12T06:32:49.083Z,100828.50
2022-12-12T06:35:19.202Z,100832.34
2022-12-12T06:37:48.468Z,100838.25
2022-12-12T06:40:17.636Z,100838.47
2022-12-12T06:42:48.520Z,100836.66
2022-12-12T06:45:17.771Z,100841.97
2022-12-12T06:47:46.556Z,100840.69
2022-12-12T06:50:19.089Z,100844.94
2022-12-12T06:52:53.333Z,100847.22
2022-12-12T06:55:21.997Z,100843.41
2022-12-12T06:57:50.684Z,100851.41
2022-12-12T07:00:20.090Z,100847.22
2022-12-12T07:02:48.708Z,100843.88
2022-12-12T07:05:17.613Z,100837.72
2022-12-12T07:07:46.235Z,100841.44
2022-12-12T07:10:21.106Z,100851.41
2022-12-12T07:12:54.574Z,100846.94
2022-12-12T07:15:25.894Z,100853.44
2022-12-12T07:17:54.954Z,100859.75
2022-12-12T07:20:23.683Z,100859.91
2022-12-12T07:22:52.328Z,100857.59
2022-12-12T07:25:22.317Z,100861.75
2022-12-12T07:27:50.976Z,100871.91
2022-12-12T07:30:19.796Z,100873.16
2022-12-12T07:32:48.384Z,100867.16
2022-12-12T07:35:17.112Z,100878.19
2022-12-12T07:37:45.698Z,100876.50
2022-12-12T07:40:14.589Z,100878.38
2022-12-12T07:42:44.626Z,100869.78
2022-12-12T07:45:18.021Z,100865.50
2022-12-12T07:47:47.430Z,100868.94
2022-12-12T07:50:16.060Z,100879.00
2022-12-12T07:52:44.705Z,100874.75
2022-12-12T07:55:13.668Z,100882.19
2022-12-12T07:57:43.811Z,100883.97
2022-12-12T08:00:14.522Z,100879.78
2022-12-12T08:02:43.234Z,100880.22
2022-12-12T08:05:12.332Z,100879.44
2022-12-12T08:07:41.309Z,100884.91
2022-12-12T08:10:10.587Z,100883.97
2022-12-12T08:12:39.240Z,100882.28
2022-12-12T08:15:12.735Z,100890.56
2022-12-12T08:17:41.712Z,100891.75
2022-12-12T08:20:11.529Z,100892.06
2022-12-12T08:22:40.149Z,100886.59
2022-12-12T08:25:09.412Z,100891.47
2022-12-12T08:27:38.266Z,100889.13
2022-12-12T08:30:09.837Z,100897.41
2022-12-12T08:32:38.633Z,100892.13
2022-12-12T08:35:08.352Z,100890.19
2022-12-12T08:37:36.975Z,100892.91
2022-12-12T08:40:06.752Z,100893.13
2022-12-12T08:42:35.444Z,100901.13
2022-12-12T08:45:04.088Z,100903.25
2022-12-12T08:47:34.097Z,100898.78
2022-12-12T08:50:02.722Z,100902.56
2022-12-12T08:52:31.345Z,100902.03
2022-12-12T08:54:59.950Z,100896.97
2022-12-12T08:57:28.624Z,100902.56
2022-12-12T08:59:57.387Z,100906.34
2022-12-12T09:02:26.358Z,100911.41
2022-12-12T09:04:56.419Z,100911.31
2022-12-12T09:07:25.090Z,100905.81
2022-12-12T09:09:53.663Z,100909.06
2022-12-12T09:12:22.321Z,100906.69
2022-12-12T09:14:50.943Z,100904.31
2022-12-12T09:17:19.551Z,100903.91
2022-12-12T09:19:48.204Z,100918.63
2022-12-12T09:22:18.627Z,100919.56
2022-12-12T09:24:47.208Z,100919.56
2022-12-12T09:27:15.871Z,100926.00
2022-12-12T09:29:44.452Z,100920.63
2022-12-12T09:32:13.150Z,100925.94
2022-12-12T09:34:41.815Z,100924.09
2022-12-12T09:37:10.591Z,100927.94
2022-12-12T09:39:40.729Z,100927.44
2022-12-12T09:42:18.744Z,100923.94
2022-12-12T09:44:47.809Z,100923.47
2022-12-12T09:47:21.505Z,100933.22
2022-12-12T09:49:55.139Z,100925.31
2022-12-12T09:52:31.605Z,100928.22
2022-12-12T09:55:03.837Z,100926.50
2022-12-12T09:57:39.186Z,100924.84
2022-12-12T10:00:09.578Z,100930.34
2022-12-12T10:02:49.523Z,100935.03
2022-12-12T10:05:27.883Z,100929.19
2022-12-12T10:08:02.191Z,100925.13
2022-12-12T10:10:35.326Z,100929.81
2022-12-12T10:13:06.849Z,100924.63
2022-12-12T10:15:38.447Z,100926.91
2022-12-12T10:18:09.714Z,100925.81
2022-12-12T10:20:46.634Z,100924.66
2022-12-12T10:23:22.237Z,100920.72
2022-12-12T10:25:57.338Z,100914.88
2022-12-12T10:28:28.160Z,100922.78
2022-12-12T10:31:15.420Z,100916.94
2022-12-12T10:33:57.312Z,100912.25
2022-12-12T10:36:46.855Z,100922.34
2022-12-12T10:39:23.508Z,100913.63
2022-12-12T10:42:01.384Z,100914.53
2022-12-12T10:44:49.179Z,100909.13
2022-12-12T10:47:17.970Z,100900.69
2022-12-12T10:49:46.577Z,100897.84
2022-12-12T10:52:19.198Z,100899.22
2022-12-12T10:54:52.339Z,100904.81
2022-12-12T10:57:25.553Z,100901.00
2022-12-12T10:59:55.734Z,100892.13
2022-12-12T11:02:30.975Z,100892.25
2022-12-12T11:05:03.880Z,100886.59
2022-12-12T11:07:37.415Z,100880.22
2022-12-12T11:10:24.713Z,100885.50
2022-12-12T11:13:02.357Z,100883.59
2022-12-12T11:15:40.576Z,100881.16
2022-12-12T11:18:14.704Z,100880.59
2022-12-12T11:20:47.782Z,100878.38
2022-12-12T11:23:21.056Z,100882.78
2022-12-12T11:25:57.071Z,100874.94
2022-12-12T11:28:31.052Z,100882.53
2022-12-12T11:31:02.932Z,100876.91
2022-12-12T11:33:35.820Z,100881.53
2022-12-12T11:36:06.644Z,100885.72
2022-12-12T11:38:40.947Z,100882.84
2022-12-12T11:41:11.994Z,100882.28
2022-12-12T11:43:55.948Z,100884.47
2022-12-12T11:46:27.528Z,100885.59
2022-12-12T11:49:01.782Z,100873.88
2022-12-12T11:51:37.197Z,100869.41
2022-12-12T11:54:11.898Z,100863.03
2022-12-12T11:56:48.376Z,100861.25
2022-12-12T11:59:40.570Z,100867.50
2022-12-12T12:02:41.927Z,100868.34
2022-12-12T12:05:26.022Z,100868.09
2022-12-12T12:08:15.657Z,100866.66
2022-12-12T12:11:01.571Z,100867.28
2022-12-12T12:13:48.260Z,100865.91
2022-12-12T12:16:27.061Z,100866.97
2022-12-12T12:19:08.760Z,100853.25
2022-12-12T12:21:46.986Z,100861.91
2022-12-12T12:24:51.553Z,100854.75
2022-12-12T12:27:27.594Z,100859.59
2022-12-12T12:30:20.756Z,100854.94
2022-12-12T12:33:20.403Z,100854.56
2022-12-12T12:36:03.479Z,100854.94
2022-12-12T12:38:48.617Z,100855.94
2022-12-12T12:41:32.792Z,100858.69
2022-12-12T12:44:20.431Z,100854.16
2022-12-12T12:46:55.143Z,100854.91
2022-12-12T12:49:28.647Z,100852.38
2022-12-12T12:52:03.027Z,100847.56
2022-12-12T12:54:36.405Z,100851.09
2022-12-12T12:57:12.021Z,100846.97
2022-12-12T12:59:45.356Z,100843.78
2022-12-12T13:02:27.170Z,100845.84
2022-12-12T13:05:06.938Z,100839.38
2022-12-12T13:07:43.442Z,100829.06
2022-12-12T13:10:20.917Z,100831.22
2022-12-12T13:12:56.797Z,100834.72
2022-12-12T13:15:31.744Z,100834.34
2022-12-12T13:18:03.837Z,100843.09
2022-12-12T13:20:39.014Z,100832.94
2022-12-12T13:23:47.056Z,100840.47
2022-12-12T13:26:24.422Z,100828.50
2022-12-12T13:28:59.459Z,100831.44
2022-12-12T13:32:06.966Z,100835.03
2022-12-12T13:34:44.651Z,100838.03
2022-12-12T13:37:21.369Z,100834.22
2022-12-12T13:40:01.201Z,100842.88
2022-12-12T13:42:55.013Z,100842.47
2022-12-12T13:45:45.455Z,100843.09
2022-12-12T13:48:55.094Z,100846.38
2022-12-12T13:51:39.853Z,100848.97
2022-12-12T13:54:56.744Z,100848.31
2022-12-12T13:57:34.099Z,100850.91
2022-12-12T14:00:20.904Z,100846.66
2022-12-12T14:03:08.050Z,100846.41
2022-12-12T14:05:39.842Z,100851.25
2022-12-12T14:08:22.728Z,100845.47
2022-12-12T14:11:01.542Z,100839.50
2022-12-12T14:13:40.279Z,100843.25
2022-12-12T14:16:21.047Z,100830.41
2022-12-12T14:19:07.506Z,100833.16
2022-12-12T14:21:46.454Z,100833.38
2022-12-12T14:24:55.427Z,100834.41
2022-12-12T14:28:15.782Z,100833.38
2022-12-12T14:30:57.312Z,100835.69
2022-12-12T14:34:19.294Z,100842.03
2022-12-12T14:37:20.359Z,100836.53
2022-12-12T14:40:10.855Z,100831.47
2022-12-12T14:43:19.289Z,100839.09
2022-12-12T14:45:41.182Z,100840.56
2022-12-12T14:48:20.909Z,100849.44
2022-12-12T14:51:02.505Z,100852.16
2022-12-12T14:53:40.557Z,100853.00
2022-12-12T14:56:12.630Z,100848.59
2022-12-12T14:58:45.952Z,100849.22
2022-12-12T15:01:16.937Z,100845.84
2022-12-12T15:03:51.046Z,100854.09
2022-12-12T15:06:38.460Z,100856.00
2022-12-12T15:09:29.530Z,100858.75
2022-12-12T15:12:16.648Z,100860.63
2022-12-12T15:14:55.271Z,100860.63
2022-12-12T15:17:28.359Z,100858.28
2022-12-12T15:20:00.642Z,100859.59
2022-12-12T15:22:31.012Z,100858.28
2022-12-12T15:25:01.731Z,100861.91
2022-12-12T15:27:33.766Z,100866.34
2022-12-12T15:30:03.767Z,100864.00
2022-12-12T15:32:32.467Z,100854.50
2022-12-12T15:35:06.380Z,100860.59
2022-12-12T15:37:36.005Z,100871.38
2022-12-12T15:40:27.261Z,100874.09
2022-12-12T15:42:59.151Z,100876.41
2022-12-12T15:45:33.433Z,100888.44
2022-12-12T15:48:03.420Z,100881.22
2022-12-12T15:50:48.186Z,100884.78
2022-12-12T15:53:22.115Z,100879.06
2022-12-12T15:55:59.772Z,100882.63
2022-12-12T15:58:31.994Z,100882.00
2022-12-12T16:01:07.835Z,100887.44
2022-12-12T16:04:00.053Z,100894.19
2022-12-12T16:06:31.937Z,100896.63
2022-12-12T16:09:17.024Z,100894.34
2022-12-12T16:11:47.121Z,100902.78
2022-12-12T16:14:42.403Z,100902.75
2022-12-12T16:17:17.486Z,100900.41
2022-12-12T16:19:53.658Z,100897.25
2022-12-12T16:22:34.607Z,100902.94
2022-12-12T16:25:18.740Z,100901.22
2022-12-12T16:27:51.189Z,100898.28
2022-12-12T16:30:19.585Z,100891.97
2022-12-12T16:32:48.042Z,100897.38
2022-12-12T16:35:18.690Z,100899.22
2022-12-12T16:37:49.147Z,100898.66
2022-12-12T16:40:20.025Z,100901.34
2022-12-12T16:42:55.861Z,100898.34
2022-12-12T16:45:24.636Z,100896.22
2022-12-12T16:47:52.988Z,100901.25
2022-12-12T16:50:21.478Z,100895.78
2022-12-12T16:52:51.399Z,100893.47
2022-12-12T16:55:24.381Z,100897.00
2022-12-12T16:57:52.851Z,100900.41
2022-12-12T17:00:21.754Z,100901.00
2022-12-12T17:02:50.235Z,100901.16
2022-12-12T17:05:23.421Z,100895.28
2022-12-12T17:07:54.199Z,100891.00
2022-12-12T17:10:25.443Z,100894.56
2022-12-12T17:12:55.088Z,100901.75
2022-12-12T17:15:26.200Z,100900.75
2022-12-12T17:17:54.787Z,100899.22
2022-12-12T17:20:23.325Z,100917.31
2022-12-12T17:22:53.556Z,100912.84
2022-12-12T17:25:22.827Z,100908.91
2022-12-12T17:27:52.543Z,100910.75
2022-12-12T17:30:22.449Z,100909.97
2022-12-12T17:35:37.091Z,100906.50
2022-12-12T17:38:10.233Z,100907.91
2022-12-12T17:40:44.365Z,100902.59
2022-12-12T17:43:12.691Z,100895.03
2022-12-12T17:45:41.217Z,100897.97
2022-12-12T17:48:09.599Z,100896.28
2022-12-12T17:50:41.666Z,100902.19
2022-12-12T17:53:11.763Z,100895.56
2022-12-12T17:55:54.626Z,100889.53
2022-12-12T17:58:32.595Z,100885.81
2022-12-12T18:01:02.333Z,100890.78
2022-12-12T18:03:30.709Z,100886.72
2022-12-12T18:06:01.599Z,100891.81
2022-12-12T18:08:31.427Z,100889.91
2022-12-12T18:10:59.850Z,100886.16
2022-12-12T18:13:28.344Z,100890.44
2022-12-12T18:15:57.922Z,100898.72
2022-12-12T18:18:28.411Z,100897.78
2022-12-12T18:20:56.932Z,100888.09
2022-12-12T18:23:25.287Z,100892.13
2022-12-12T18:25:55.107Z,100899.50
2022-12-12T18:28:23.442Z,100893.19
2022-12-12T18:30:51.833Z,100892.91
2022-12-12T18:33:20.169Z,100892.25
2022-12-12T18:35:48.511Z,100895.00
2022-12-12T18:38:17.580Z,100895.25
2022-12-12T18:40:45.948Z,100891.28
2022-12-12T18:43:15.707Z,100892.47
2022-12-12T18:45:44.169Z,100895.41
2022-12-12T18:48:12.635Z,100894.75
2022-12-12T18:50:41.002Z,100893.25
2022-12-12T18:53:09.384Z,100893.44
2022-12-12T18:55:42.338Z,100887.63
2022-12-12T18:58:11.232Z,100891.56
2022-12-12T19:00:41.352Z,100892.16
2022-12-12T19:03:10.259Z,100892.28
2022-12-12T19:05:42.639Z,100883.88
2022-12-12T19:08:12.041Z,100887.06
2022-12-12T19:10:40.913Z,100886.41
2022-12-12T19:13:09.293Z,100889.41
2022-12-12T19:15:37.651Z,100884.72
2022-12-12T19:18:07.595Z,100878.66
2022-12-12T19:20:37.151Z,100881.16
2022-12-12T19:23:05.557Z,100881.31
2022-12-12T19:25:40.893Z,100874.94
2022-12-12T19:28:12.395Z,100881.00
2022-12-12T19:30:42.363Z,100884.44
2022-12-12T19:33:12.186Z,100882.75
2022-12-12T19:35:40.550Z,100880.03
2022-12-12T19:38:08.933Z,100876.63
2022-12-12T19:40:37.269Z,100872.13
2022-12-12T19:43:05.750Z,100869.41
2022-12-12T19:45:34.080Z,100875.25
2022-12-12T19:48:02.496Z,100880.72
2022-12-12T19:50:32.180Z,100891.81
2022-12-12T19:53:00.559Z,100888.84
2022-12-12T19:55:28.973Z,100884.81
2022-12-12T19:57:57.368Z,100883.00
2022-12-12T20:00:26.021Z,100893.66
2022-12-12T20:02:54.439Z,100886.13
2022-12-12T20:05:22.849Z,100888.28
2022-12-12T20:07:52.665Z,100897.72
2022-12-12T20:10:21.045Z,100886.97
2022-12-12T20:12:57.917Z,100891.34
2022-12-12T20:15:27.152Z,100885.22
2022-12-12T20:17:56.414Z,100885.22
2022-12-12T20:20:24.772Z,100894.34
2022-12-12T20:22:54.549Z,100893.41
2022-12-12T20:25:22.891Z,100896.31
2022-12-12T20:27:51.300Z,100889.44
2022-12-12T20:30:19.822Z,100893.78
2022-12-12T20:32:48.185Z,100895.03
2022-12-12T20:35:16.712Z,100899.19
2022-12-12T20:37:45.077Z,100896.44
2022-12-12T20:40:15.243Z,100902.00
2022-12-12T20:42:47.320Z,100897.97
2022-12-12T20:45:18.841Z,100906.34
2022-12-12T20:47:47.218Z,100906.94
2022-12-12T20:50:15.705Z,100908.44
2022-12-12T20:52:44.075Z,100909.50
2022-12-12T20:55:12.725Z,100912.09
2022-12-12T20:57:43.074Z,100902.69
2022-12-12T21:00:13.447Z,100906.56
2022-12-12T21:02:42.035Z,100909.78
2022-12-12T21:05:11.531Z,100905.31
2022-12-12T21:07:40.148Z,100904.03
2022-12-12T21:10:09.412Z,100904.50
2022-12-12T21:12:37.784Z,100908.19
2022-12-12T21:15:09.359Z,100895.34
2022-12-12T21:17:37.758Z,100900.53
2022-12-12T21:20:08.824Z,100905.91
2022-12-12T21:22:37.225Z,100896.88
2022-12-12T21:25:06.290Z,100900.63
2022-12-12T21:27:34.672Z,100902.97
2022-12-12T21:30:03.041Z,100901.22
2022-12-12T21:32:32.829Z,100896.50
2022-12-12T21:35:01.235Z,100898.75
2022-12-12T21:37:29.636Z,100904.06
2022-12-12T21:39:58.308Z,100899.44
2022-12-12T21:42:26.723Z,100893.69
2022-12-12T21:44:55.087Z,100905.66
2022-12-12T21:47:23.485Z,100900.66
2022-12-12T21:49:53.283Z,100905.66
2022-12-12T21:52:22.116Z,100909.22
2022-12-12T21:54:50.539Z,100905.66
2022-12-12T21:57:23.379Z,100910.06
2022-12-12T21:59:53.328Z,100910.53
2022-12-12T22:02:21.702Z,100900.19
2022-12-12T22:04:50.086Z,100902.38
2022-12-12T22:07:20.919Z,100905.56
2022-12-12T22:09:57.679Z,100905.56
2022-12-12T22:12:37.801Z,100907.44
2022-12-12T22:15:07.472Z,100898.97
2022-12-12T22:17:35.795Z,100912.53
2022-12-12T22:20:04.342Z,100902.25
2022-12-12T22:22:34.087Z,100903.22
2022-12-12T22:25:02.475Z,100912.16
2022-12-12T22:27:31.049Z,100897.84
2022-12-12T22:29:59.427Z,100911.41
2022-12-12T22:32:29.404Z,100908.09
2022-12-12T22:34:59.209Z,100906.03
2022-12-12T22:37:27.575Z,100910.75
2022-12-12T22:39:57.320Z,100912.06
2022-12-12T22:42:25.648Z,100910.38
2022-12-12T22:44:54.008Z,100908.00
2022-12-12T22:47:23.832Z,100905.84
2022-12-12T22:49:53.406Z,100906.22
2022-12-12T22:52:21.736Z,100900.66
2022-12-12T22:54:50.080Z,100893.88
2022-12-12T22:57:19.897Z,100901.59
2022-12-12T22:59:49.017Z,100902.34
2022-12-12T23:02:23.167Z,100897.75
2022-12-12T23:04:53.418Z,100896.13
2022-12-12T23:07:22.013Z,100889.47
2022-12-12T23:09:53.483Z,100898.03
2022-12-12T23:12:23.740Z,100890.59
2022-12-12T23:14:52.087Z,100886.72
2022-12-12T23:17:20.448Z,100892.63
2022-12-12T23:19:48.823Z,100891.72
2022-12-12T23:22:18.462Z,100881.53
2022-12-12T23:24:46.834Z,100880.31
2022-12-12T23:27:15.198Z,100889.91
2022-12-12T23:29:44.999Z,100881.91
2022-12-12T23:32:13.364Z,100881.19
2022-12-12T23:34:41.694Z,100876.94
2022-12-12T23:37:10.204Z,100876.56
2022-12-12T23:39:38.700Z,100876.47
2022-12-12T23:42:07.598Z,100867.31
2022-12-12T23:44:35.960Z,100879.56
2022-12-12T23:47:05.803Z,100868.16
2022-12-12T23:49:34.209Z,100867.69
2022-12-12T23:52:02.556Z,100878.63
2022-12-12T23:54:33.666Z,100870.97
2022-12-12T23:57:02.653Z,100866.06
2022-12-12T23:59:31.374Z,100863.81
